Ballantine, Montana
Current Conditions -  °F | °C
As of 12:45 AM on Wednesday 26 Nov 2014 (Local Time) from KBIL Reporting Station
Light Snow Light Snow  
Wind Chill: 20°   Ceiling: 2800
Heat Index: 29°   Visibility: 2mi
Dew Point: 27°   Wind: 10mph
Humidity: 92%   Direction: 240°WSW
Pressure: 30.18"   Gusts: NA
Location:  45.95°N, 108.15°W
Report Text: KBIL 260745Z 24009KT 2SM -SN BR SCT003 OVC028 M02/M03 A3018 RMK AO2 SNB05 P0000 T10171028 $
Loading
Personal Weather Stations






























Interactive Weather Map New forecast layout! Learn more

10-Day Weather Forecast

Advertisements
Track Severe Weather on mobile